Time;durP1;ratioP1;P1;durP2;ratioP2;P2;SDS_P1;SDS_P2;PMS_P1;PMS_P2;Temp;Humidity;BMP_temperature;BMP_pressure;BME280_temperature;BME280_humidity;BME280_pressure;Samples;Min_cycle;Max_cycle;Signal;HPM_P1;HPM_P2
2021/08/30 00:01:27;;;;;;;23.33;15.80;;;16.20;99.90;;;;;;5035235;28;20176;-73
2021/08/30 00:03:53;;;;;;;26.30;16.20;;;16.20;99.90;;;;;;5035248;28;20169;-73
2021/08/30 00:06:19;;;;;;;22.53;16.27;;;16.20;99.90;;;;;;5034694;28;20165;-73
2021/08/30 00:08:44;;;;;;;22.87;16.23;;;16.20;99.90;;;;;;5034629;28;20173;-73
2021/08/30 00:11:10;;;;;;;27.90;16.77;;;16.20;99.90;;;;;;5049570;28;20198;-73
2021/08/30 00:13:36;;;;;;;23.60;16.03;;;16.20;99.90;;;;;;5038333;28;20176;-73
2021/08/30 00:16:02;;;;;;;24.23;17.43;;;16.20;99.90;;;;;;5053528;28;20172;-73
2021/08/30 00:18:28;;;;;;;21.27;16.40;;;16.20;99.90;;;;;;5054484;28;20398;-73
2021/08/30 00:20:54;;;;;;;20.47;15.27;;;16.20;99.90;;;;;;5040993;28;20912;-73
2021/08/30 00:23:20;;;;;;;22.60;15.23;;;16.20;99.90;;;;;;5034472;28;20160;-73
2021/08/30 00:25:45;;;;;;;22.97;14.30;;;16.20;99.90;;;;;;5034050;28;20231;-73
2021/08/30 00:28:11;;;;;;;19.50;15.60;;;16.20;99.90;;;;;;5034312;28;20421;-73
2021/08/30 00:30:37;;;;;;;21.30;16.23;;;16.20;99.90;;;;;;5034306;28;20288;-73
2021/08/30 00:33:02;;;;;;;21.17;14.47;;;16.10;99.90;;;;;;5034329;28;20251;-73
2021/08/30 00:35:28;;;;;;;22.80;16.53;;;16.20;99.90;;;;;;5033803;28;20231;-73
2021/08/30 00:37:53;;;;;;;23.83;16.80;;;16.20;99.90;;;;;;5033288;28;20164;-73
2021/08/30 00:40:19;;;;;;;21.90;16.50;;;16.20;99.90;;;;;;5033644;28;20355;-73
2021/08/30 00:42:45;;;;;;;20.33;16.57;;;16.20;99.90;;;;;;5034000;28;20165;-73
2021/08/30 00:45:13;;;;;;;21.90;17.83;;;16.20;99.90;;;;;;5033638;28;20279;-73
2021/08/30 00:47:43;;;;;;;21.07;16.13;;;16.20;99.90;;;;;;5034077;28;20533;-73
2021/08/30 00:50:11;;;;;;;20.20;15.07;;;16.20;99.90;;;;;;5033792;28;20419;-73
2021/08/30 00:52:37;;;;;;;19.90;15.10;;;16.20;99.90;;;;;;5033403;28;20439;-73
2021/08/30 00:55:04;;;;;;;25.13;17.33;;;16.20;99.90;;;;;;5034109;28;20490;-73
2021/08/30 00:57:30;;;;;;;23.73;17.30;;;16.20;99.90;;;;;;5033483;28;20181;-73
2021/08/30 00:59:56;;;;;;;19.70;15.07;;;16.20;99.90;;;;;;5032874;28;20534;-73
2021/08/30 01:02:21;;;;;;;25.20;17.93;;;16.20;99.90;;;;;;5033167;28;20165;-73
2021/08/30 01:04:47;;;;;;;24.33;17.60;;;16.20;99.90;;;;;;5033861;28;20180;-73
2021/08/30 01:07:36;;;;;;;31.00;18.47;;;16.20;99.90;;;;;;5034006;28;20172;-73
2021/08/30 01:10:10;;;;;;;26.40;18.00;;;16.20;99.90;;;;;;5052404;28;20414;-73
2021/08/30 01:13:03;;;;;;;21.23;15.40;;;16.20;99.90;;;;;;5052960;28;20477;-73
2021/08/30 01:15:39;;;;;;;19.47;15.60;;;16.20;99.90;;;;;;5052887;28;20663;-73
2021/08/30 01:18:08;;;;;;;24.90;15.50;;;16.20;99.90;;;;;;5044368;28;20916;-73
2021/08/30 01:23:14;;;;;;;19.63;15.37;;;16.20;99.90;;;;;;5113693;27;20521;-76
2021/08/30 01:25:40;;;;;;;21.47;15.33;;;16.20;99.90;;;;;;5110072;28;20431;-76
2021/08/30 01:28:06;;;;;;;24.37;15.37;;;16.20;99.90;;;;;;5109685;28;20416;-77
2021/08/30 01:30:36;;;;;;;22.03;14.80;;;16.10;99.90;;;;;;5109997;28;20190;-76
2021/08/30 01:33:02;;;;;;;22.27;15.37;;;16.10;99.90;;;;;;5098660;28;20421;-76
2021/08/30 01:35:30;;;;;;;21.40;14.87;;;16.10;99.90;;;;;;5090599;28;20476;-77
2021/08/30 01:37:59;;;;;;;20.73;15.83;;;16.10;99.90;;;;;;5089829;28;20531;-77
2021/08/30 01:40:27;;;;;;;20.07;15.17;;;16.20;99.90;;;;;;5090025;28;20409;-77
2021/08/30 01:42:54;;;;;;;26.00;17.13;;;16.10;99.90;;;;;;5090324;28;20444;-77
2021/08/30 01:45:24;;;;;;;20.73;15.53;;;16.10;99.90;;;;;;5089689;28;20405;-76
2021/08/30 01:47:52;;;;;;;22.73;15.67;;;16.10;99.90;;;;;;5090089;28;20424;-76
2021/08/30 01:50:20;;;;;;;18.50;14.80;;;16.10;99.90;;;;;;5089807;28;20393;-76
2021/08/30 01:52:47;;;;;;;22.53;15.27;;;16.10;99.90;;;;;;5086316;28;20430;-76
2021/08/30 02:00:48;;;;;;;19.37;14.60;;;16.10;99.90;;;;;;5071241;28;20643;-73
2021/08/30 02:08:34;;;;;;;23.80;16.07;;;16.10;99.90;;;;;;5080520;27;20521;-73
2021/08/30 02:11:02;;;;;;;21.60;15.87;;;16.10;99.90;;;;;;5069809;28;20879;-73
2021/08/30 02:13:29;;;;;;;20.03;14.53;;;16.10;99.90;;;;;;5059746;28;20921;-73
2021/08/30 02:15:56;;;;;;;22.93;17.27;;;16.10;99.90;;;;;;5050011;28;20387;-73
2021/08/30 02:18:37;;;;;;;22.10;15.77;;;16.10;99.90;;;;;;5057533;28;20446;-71
2021/08/30 02:21:27;;;;;;;19.57;14.43;;;16.10;99.90;;;;;;5069452;28;20421;-71
2021/08/30 02:26:45;;;;;;;22.40;16.43;;;16.10;99.90;;;;;;5105775;27;20573;-71
2021/08/30 02:29:14;;;;;;;18.20;14.87;;;16.10;99.90;;;;;;5076434;28;20487;-71
2021/08/30 02:31:44;;;;;;;20.23;15.70;;;16.10;99.90;;;;;;5075202;28;20422;-71
2021/08/30 02:34:10;;;;;;;20.90;16.30;;;16.00;99.90;;;;;;5069821;28;20484;-71
2021/08/30 02:36:37;;;;;;;19.40;14.87;;;16.00;99.90;;;;;;5070124;28;20440;-70
2021/08/30 02:39:03;;;;;;;22.50;16.37;;;16.00;99.90;;;;;;5069792;28;20448;-71
2021/08/30 02:41:29;;;;;;;22.27;16.23;;;16.00;99.90;;;;;;5081919;28;20435;-74
2021/08/30 02:43:56;;;;;;;18.10;14.73;;;16.00;99.90;;;;;;5089675;28;20389;-74
2021/08/30 02:46:21;;;;;;;23.93;16.90;;;16.00;99.90;;;;;;5088854;28;20451;-74
2021/08/30 02:48:48;;;;;;;22.27;16.57;;;16.00;99.90;;;;;;5088913;28;20484;-74
2021/08/30 02:51:14;;;;;;;22.50;16.47;;;16.00;99.90;;;;;;5079448;28;20217;-74
2021/08/30 02:53:42;;;;;;;26.20;14.70;;;16.00;99.90;;;;;;5069185;28;20484;-74
2021/08/30 02:56:08;;;;;;;23.10;17.03;;;15.90;99.90;;;;;;5069427;28;20402;-74
2021/08/30 02:58:34;;;;;;;21.00;15.53;;;15.90;99.90;;;;;;5069046;28;20438;-74
2021/08/30 03:01:01;;;;;;;21.90;16.20;;;15.90;99.90;;;;;;5072277;28;20425;-74
2021/08/30 03:03:26;;;;;;;21.40;15.07;;;15.90;99.90;;;;;;5070692;28;20168;-74
2021/08/30 03:05:53;;;;;;;21.20;13.93;;;15.90;99.90;;;;;;5088276;28;20487;-74
2021/08/30 03:08:19;;;;;;;20.73;15.60;;;15.90;99.90;;;;;;5090012;28;20171;-74
2021/08/30 03:10:46;;;;;;;19.33;15.07;;;15.90;99.90;;;;;;5084324;28;20864;-74
2021/08/30 03:13:12;;;;;;;19.70;16.33;;;15.90;99.90;;;;;;5069355;28;20407;-74
2021/08/30 03:15:40;;;;;;;24.23;17.40;;;15.90;99.90;;;;;;5069323;28;20422;-73
2021/08/30 03:18:11;;;;;;;22.47;15.87;;;15.90;99.90;;;;;;5069471;28;20402;-73
2021/08/30 03:20:37;;;;;;;20.27;16.03;;;15.90;99.90;;;;;;5072180;28;20524;-73
2021/08/30 03:23:03;;;;;;;19.93;14.60;;;15.90;99.90;;;;;;5088796;28;20432;-73
2021/08/30 03:25:32;;;;;;;20.13;13.97;;;15.90;99.90;;;;;;5070514;28;20466;-73
2021/08/30 03:28:00;;;;;;;22.10;14.00;;;15.90;99.90;;;;;;5068813;28;20405;-73
2021/08/30 03:30:26;;;;;;;19.97;15.00;;;15.90;99.90;;;;;;5069789;28;20435;-73
2021/08/30 03:32:53;;;;;;;17.40;12.70;;;15.90;99.90;;;;;;5068886;28;20406;-73
2021/08/30 03:35:21;;;;;;;21.00;15.13;;;15.90;99.90;;;;;;5068879;28;20757;-73
2021/08/30 03:37:47;;;;;;;20.27;14.30;;;15.90;99.90;;;;;;5060398;28;20461;-73
2021/08/30 03:40:16;;;;;;;18.40;14.27;;;15.90;99.90;;;;;;5074705;28;20425;-73
2021/08/30 03:42:42;;;;;;;23.50;16.00;;;15.90;99.90;;;;;;5056526;28;20427;-73
2021/08/30 03:45:10;;;;;;;22.67;15.07;;;15.80;99.90;;;;;;5055710;28;20442;-73
2021/08/30 03:47:37;;;;;;;29.50;16.07;;;15.80;99.90;;;;;;5055849;28;20914;-73
2021/08/30 03:50:04;;;;;;;22.07;16.73;;;15.80;99.90;;;;;;5055958;28;20425;-73
2021/08/30 03:52:32;;;;;;;20.47;16.40;;;15.90;99.90;;;;;;5071669;28;20504;-73
2021/08/30 03:54:58;;;;;;;22.87;16.03;;;15.80;99.90;;;;;;5064466;28;20475;-73
2021/08/30 03:57:25;;;;;;;20.53;15.03;;;15.80;99.90;;;;;;5065147;28;20821;-73
2021/08/30 03:59:55;;;;;;;20.80;15.10;;;15.80;99.90;;;;;;5055799;28;20337;-73
2021/08/30 04:02:23;;;;;;;22.43;14.70;;;15.80;99.90;;;;;;5054787;28;20779;-74
2021/08/30 04:04:49;;;;;;;22.13;16.57;;;15.80;99.90;;;;;;5055163;28;20499;-74
2021/08/30 04:07:17;;;;;;;19.60;15.33;;;15.80;99.90;;;;;;5055688;28;20396;-74
2021/08/30 04:09:43;;;;;;;20.50;15.50;;;15.80;99.90;;;;;;5055311;28;20464;-74
2021/08/30 04:12:09;;;;;;;22.10;14.90;;;15.90;99.90;;;;;;5066188;28;20429;-73
2021/08/30 04:14:35;;;;;;;20.83;15.23;;;15.80;99.90;;;;;;5074169;28;20435;-73
2021/08/30 04:17:01;;;;;;;16.40;13.93;;;15.80;99.90;;;;;;5074792;28;20573;-73
2021/08/30 04:19:26;;;;;;;20.20;15.03;;;15.80;99.90;;;;;;5074740;28;20406;-73
2021/08/30 04:21:52;;;;;;;22.43;15.80;;;15.80;99.90;;;;;;5065435;28;20191;-73
2021/08/30 04:24:17;;;;;;;20.73;15.20;;;15.80;99.90;;;;;;5064699;28;20190;-73
2021/08/30 04:26:43;;;;;;;20.00;15.27;;;15.80;99.90;;;;;;5074766;28;20163;-73
2021/08/30 04:29:09;;;;;;;19.27;15.03;;;15.80;99.90;;;;;;5057678;28;20649;-73
2021/08/30 04:31:34;;;;;;;21.53;15.20;;;15.80;99.90;;;;;;5065358;28;20215;-73
2021/08/30 04:34:00;;;;;;;16.30;13.70;;;15.80;99.90;;;;;;5074772;28;20621;-73
2021/08/30 04:36:26;;;;;;;20.93;14.80;;;15.80;99.90;;;;;;5075440;28;20664;-73
2021/08/30 04:38:51;;;;;;;22.93;16.50;;;15.80;99.90;;;;;;5075014;28;20168;-73
2021/08/30 04:41:17;;;;;;;23.30;15.47;;;15.80;99.90;;;;;;5065072;28;20248;-74
2021/08/30 04:43:43;;;;;;;25.40;17.53;;;15.80;99.90;;;;;;5064723;28;20218;-74
2021/08/30 04:46:09;;;;;;;21.60;16.70;;;15.80;99.90;;;;;;5071446;28;20192;-74
2021/08/30 04:48:35;;;;;;;22.67;16.70;;;15.80;99.90;;;;;;5084138;28;20413;-73
2021/08/30 04:51:00;;;;;;;23.40;17.80;;;15.80;99.90;;;;;;5083396;28;20176;-73
2021/08/30 04:53:26;;;;;;;23.77;17.80;;;15.80;99.90;;;;;;5057199;28;20581;-73
2021/08/30 04:55:52;;;;;;;22.40;15.73;;;15.80;99.90;;;;;;5057338;28;20152;-73
2021/08/30 04:58:17;;;;;;;21.00;16.77;;;15.80;99.90;;;;;;5074082;28;20183;-73
2021/08/30 05:00:43;;;;;;;22.20;16.97;;;15.80;99.90;;;;;;5073735;28;20259;-73
2021/08/30 05:03:08;;;;;;;27.17;17.70;;;15.80;99.90;;;;;;5066825;28;20180;-73
2021/08/30 05:05:34;;;;;;;30.27;17.97;;;15.90;99.90;;;;;;5077003;28;20195;-73
2021/08/30 05:07:59;;;;;;;26.20;18.87;;;15.90;99.90;;;;;;5077955;28;20179;-73
2021/08/30 05:10:25;;;;;;;27.83;18.00;;;15.90;99.90;;;;;;5074746;28;20164;-73
2021/08/30 05:12:51;;;;;;;22.20;16.97;;;15.90;99.90;;;;;;5060772;28;20179;-73
2021/08/30 05:15:16;;;;;;;26.33;18.80;;;15.90;99.90;;;;;;5056285;28;20183;-73
2021/08/30 05:17:43;;;;;;;26.90;19.03;;;15.90;99.90;;;;;;5056901;28;20221;-73
2021/08/30 05:20:08;;;;;;;24.50;19.10;;;15.90;99.90;;;;;;5058174;28;20660;-73
2021/08/30 05:22:34;;;;;;;31.07;19.33;;;15.90;99.90;;;;;;5068021;28;20458;-73
2021/08/30 05:24:59;;;;;;;28.60;17.40;;;16.00;99.90;;;;;;5074980;28;20534;-73
2021/08/30 05:27:25;;;;;;;25.50;18.97;;;15.90;99.90;;;;;;5073023;28;20739;-74
2021/08/30 05:29:51;;;;;;;24.03;19.03;;;16.00;99.90;;;;;;5068547;28;20175;-74
2021/08/30 05:32:16;;;;;;;27.17;20.20;;;16.00;99.90;;;;;;5073413;28;20258;-73
2021/08/30 05:34:42;;;;;;;27.90;18.67;;;16.00;99.90;;;;;;5076936;28;20208;-73
2021/08/30 05:37:08;;;;;;;29.43;20.47;;;16.00;99.90;;;;;;5075583;28;20266;-73
2021/08/30 05:39:33;;;;;;;26.67;19.20;;;16.00;99.90;;;;;;5066674;28;20237;-73
2021/08/30 05:41:59;;;;;;;29.00;20.90;;;16.00;99.90;;;;;;5062272;28;20178;-73
2021/08/30 05:44:25;;;;;;;32.83;22.23;;;16.00;99.90;;;;;;5072195;28;20183;-73
2021/08/30 05:46:51;;;;;;;32.17;22.37;;;16.10;99.90;;;;;;5075008;28;20168;-73
2021/08/30 05:49:17;;;;;;;31.70;22.53;;;16.10;99.90;;;;;;5071414;28;20259;-73
2021/08/30 05:51:43;;;;;;;31.93;23.50;;;16.10;99.90;;;;;;5073431;28;20461;-74
2021/08/30 05:54:08;;;;;;;26.13;20.03;;;16.10;99.90;;;;;;5071015;28;20247;-74
2021/08/30 05:56:34;;;;;;;25.23;18.73;;;16.10;99.90;;;;;;5067000;28;20184;-74
2021/08/30 05:58:59;;;;;;;27.13;21.10;;;16.10;99.90;;;;;;5066811;28;20769;-74
2021/08/30 06:01:25;;;;;;;27.03;21.53;;;16.10;99.90;;;;;;5068890;28;20175;-74
2021/08/30 06:03:50;;;;;;;25.20;19.20;;;16.20;99.90;;;;;;5075187;28;20221;-74
2021/08/30 06:06:16;;;;;;;31.77;20.60;;;16.20;99.90;;;;;;5069813;28;20557;-74
2021/08/30 06:08:42;;;;;;;24.33;19.83;;;16.20;99.90;;;;;;5072591;28;20194;-74
2021/08/30 06:11:07;;;;;;;25.53;18.53;;;16.20;99.90;;;;;;5071259;28;20206;-73
2021/08/30 06:13:33;;;;;;;23.73;17.37;;;16.20;99.90;;;;;;5077105;28;20183;-73
2021/08/30 06:15:58;;;;;;;22.73;17.70;;;16.20;99.90;;;;;;5076680;28;20171;-73
2021/08/30 06:18:25;;;;;;;24.80;19.00;;;16.20;99.90;;;;;;5077742;28;20171;-73
2021/08/30 06:20:51;;;;;;;22.87;17.80;;;16.20;99.90;;;;;;5064214;28;20184;-73
2021/08/30 06:23:17;;;;;;;26.40;19.30;;;16.20;99.90;;;;;;5059602;28;20438;-73
2021/08/30 06:25:43;;;;;;;21.67;16.40;;;16.10;99.90;;;;;;5079197;28;20475;-73
2021/08/30 06:28:12;;;;;;;24.83;20.70;;;16.10;99.90;;;;;;5069318;28;20487;-73
2021/08/30 06:30:38;;;;;;;24.37;19.53;;;16.10;99.90;;;;;;5068566;28;20179;-73
2021/08/30 06:33:04;;;;;;;29.07;21.30;;;16.20;99.90;;;;;;5078915;28;20406;-73
2021/08/30 06:35:30;;;;;;;26.80;19.20;;;16.20;99.90;;;;;;5073898;28;20441;-73
2021/08/30 06:37:59;;;;;;;27.20;20.17;;;16.20;99.90;;;;;;5075123;28;20186;-73
2021/08/30 06:40:25;;;;;;;28.50;21.53;;;16.20;99.90;;;;;;5075365;28;20505;-73
2021/08/30 06:42:52;;;;;;;31.90;22.07;;;16.20;99.90;;;;;;5076507;28;20827;-73
2021/08/30 06:45:18;;;;;;;27.20;20.77;;;16.20;99.90;;;;;;5073981;28;20209;-73
2021/08/30 06:47:44;;;;;;;25.13;19.77;;;16.20;99.90;;;;;;5075694;28;20422;-73
2021/08/30 06:50:10;;;;;;;28.80;20.97;;;16.20;99.90;;;;;;5080520;28;20413;-73
2021/08/30 06:52:36;;;;;;;26.77;19.97;;;16.20;99.90;;;;;;5071365;28;20240;-73
2021/08/30 06:55:02;;;;;;;24.73;17.97;;;16.20;99.90;;;;;;5059663;28;20426;-73
2021/08/30 06:57:32;;;;;;;30.00;23.17;;;16.30;99.90;;;;;;5063734;28;20267;-73
2021/08/30 07:00:00;;;;;;;27.00;21.80;;;16.30;99.90;;;;;;5078957;28;20456;-73
2021/08/30 07:02:26;;;;;;;29.77;20.67;;;16.30;99.90;;;;;;5064539;28;20425;-73
2021/08/30 07:04:51;;;;;;;31.40;22.23;;;16.30;99.90;;;;;;5061648;28;20989;-73
2021/08/30 07:07:17;;;;;;;31.63;22.63;;;16.30;99.90;;;;;;5062214;28;20225;-73
2021/08/30 07:09:42;;;;;;;28.90;22.67;;;16.30;99.90;;;;;;5080604;28;20672;-73
2021/08/30 07:12:08;;;;;;;29.70;19.50;;;16.30;99.90;;;;;;5080123;28;20214;-73
2021/08/30 07:14:34;;;;;;;37.10;22.63;;;16.40;99.90;;;;;;5084118;28;20179;-73
2021/08/30 07:16:59;;;;;;;30.10;18.23;;;16.30;99.90;;;;;;5078579;28;20203;-73
2021/08/30 07:19:27;;;;;;;26.20;18.80;;;16.40;99.90;;;;;;5080198;28;20179;-73
2021/08/30 07:21:53;;;;;;;28.73;19.00;;;16.40;99.90;;;;;;5076198;28;20175;-74
2021/08/30 07:24:19;;;;;;;30.63;19.40;;;16.40;99.90;;;;;;5079500;28;20866;-74
2021/08/30 07:26:44;;;;;;;26.73;18.90;;;16.50;99.90;;;;;;5073864;28;20179;-74
2021/08/30 07:29:10;;;;;;;27.20;21.03;;;16.50;99.90;;;;;;5077711;28;20167;-73
2021/08/30 07:31:37;;;;;;;25.77;18.97;;;16.50;99.90;;;;;;5073344;28;20237;-73
2021/08/30 07:34:02;;;;;;;25.20;18.27;;;16.50;99.90;;;;;;5073296;28;20274;-74
2021/08/30 07:36:28;;;;;;;35.83;19.33;;;16.50;99.90;;;;;;5076338;28;20483;-73
2021/08/30 07:38:54;;;;;;;23.97;19.33;;;16.60;99.90;;;;;;5071632;28;20286;-73
2021/08/30 07:41:20;;;;;;;24.53;17.17;;;16.60;99.90;;;;;;5076405;28;20471;-73
2021/08/30 07:43:45;;;;;;;27.10;18.93;;;16.70;99.90;;;;;;5077151;28;20175;-74
2021/08/30 07:46:11;;;;;;;27.97;18.20;;;16.70;99.90;;;;;;5075826;28;20226;-74
2021/08/30 07:48:37;;;;;;;27.93;20.20;;;16.70;99.90;;;;;;5070678;28;20175;-74
2021/08/30 07:51:02;;;;;;;25.20;19.00;;;16.70;99.90;;;;;;5076742;28;20187;-74
2021/08/30 07:53:29;;;;;;;23.97;18.60;;;16.70;99.90;;;;;;5063978;28;20176;-73
2021/08/30 07:55:56;;;;;;;26.50;17.90;;;16.70;99.90;;;;;;5071931;28;20183;-74
2021/08/30 07:58:21;;;;;;;25.97;18.80;;;16.70;99.90;;;;;;5074454;28;20415;-74
2021/08/30 08:00:47;;;;;;;23.30;18.20;;;16.80;99.90;;;;;;5077369;28;20528;-73
2021/08/30 08:03:13;;;;;;;25.90;18.37;;;16.80;99.90;;;;;;5071522;28;20911;-74
2021/08/30 08:05:39;;;;;;;21.83;17.10;;;16.90;99.90;;;;;;5069168;28;20203;-74
2021/08/30 08:08:05;;;;;;;22.30;17.90;;;16.90;99.90;;;;;;5073402;28;20645;-74
2021/08/30 08:10:31;;;;;;;22.63;16.40;;;16.90;99.90;;;;;;5074929;28;20168;-74
2021/08/30 08:12:57;;;;;;;21.53;16.50;;;17.00;99.90;;;;;;5076693;28;20973;-74
2021/08/30 08:15:23;;;;;;;23.13;17.67;;;17.10;99.90;;;;;;5077910;28;20477;-74
2021/08/30 08:17:48;;;;;;;24.33;17.67;;;17.20;99.90;;;;;;5069647;28;20570;-74
2021/08/30 08:20:14;;;;;;;20.40;15.60;;;17.40;99.90;;;;;;5066227;28;20205;-73
2021/08/30 08:22:42;;;;;;;21.60;15.90;;;17.60;99.90;;;;;;5072232;28;20175;-73
2021/08/30 08:25:08;;;;;;;19.80;16.23;;;17.70;99.90;;;;;;5073111;28;20202;-73
2021/08/30 08:27:34;;;;;;;19.80;14.07;;;17.80;99.90;;;;;;5068506;28;20427;-73
2021/08/30 08:30:00;;;;;;;19.20;13.40;;;17.90;99.90;;;;;;5077496;28;20424;-73
2021/08/30 08:32:25;;;;;;;20.30;13.67;;;18.00;99.90;;;;;;5069306;28;20502;-73
2021/08/30 08:34:51;;;;;;;14.63;13.00;;;18.00;99.90;;;;;;5071024;28;20183;-74
2021/08/30 08:37:17;;;;;;;20.70;14.30;;;18.10;99.90;;;;;;5069819;28;20589;-74
2021/08/30 08:39:42;;;;;;;21.70;15.37;;;18.30;99.90;;;;;;5077409;28;20186;-73
2021/08/30 08:42:08;;;;;;;19.87;15.27;;;18.50;99.90;;;;;;5074743;28;20182;-73
2021/08/30 08:44:34;;;;;;;19.80;14.80;;;18.70;99.90;;;;;;5069938;28;20179;-73
2021/08/30 08:47:00;;;;;;;20.17;15.60;;;18.80;99.90;;;;;;5061618;28;20176;-74
2021/08/30 08:49:26;;;;;;;20.83;14.67;;;18.80;99.90;;;;;;5054885;28;20157;-74
2021/08/30 08:51:51;;;;;;;18.97;14.83;;;18.90;99.90;;;;;;5069480;28;20433;-74
2021/08/30 08:54:17;;;;;;;20.77;13.63;;;19.00;99.90;;;;;;5074993;28;20538;-74
2021/08/30 08:56:43;;;;;;;18.70;14.60;;;19.00;99.90;;;;;;5070200;28;20616;-74
2021/08/30 08:59:08;;;;;;;23.63;14.33;;;19.00;99.90;;;;;;5056873;28;20253;-74
2021/08/30 09:01:36;;;;;;;18.70;14.80;;;19.00;99.90;;;;;;5068716;28;20663;-74
2021/08/30 09:04:03;;;;;;;17.80;13.63;;;19.00;99.90;;;;;;5062620;28;20198;-74
2021/08/30 09:06:42;;;;;;;17.07;13.63;;;19.00;99.90;;;;;;5069271;28;20553;-74
2021/08/30 09:09:15;;;;;;;15.43;13.80;;;19.00;99.90;;;;;;5056500;28;20444;-73
2021/08/30 09:11:44;;;;;;;20.70;16.23;;;18.90;99.90;;;;;;5058045;28;20391;-73
2021/08/30 09:17:05;;;;;;;17.43;13.70;;;18.90;99.90;;;;;;5070562;28;20532;-76
2021/08/30 09:19:31;;;;;;;18.37;14.03;;;18.80;99.90;;;;;;5066233;28;20421;-75
2021/08/30 09:21:57;;;;;;;18.47;13.37;;;18.70;99.90;;;;;;5054285;28;20931;-75
2021/08/30 09:24:24;;;;;;;14.87;13.20;;;18.60;99.90;;;;;;5061745;28;20410;-76
2021/08/30 09:27:03;;;;;;;14.43;12.77;;;18.60;99.90;;;;;;5065732;28;20175;-76
2021/08/30 09:29:31;;;;;;;17.60;15.20;;;18.60;99.90;;;;;;5068033;28;20492;-76
2021/08/30 09:32:01;;;;;;;19.07;14.07;;;18.60;99.90;;;;;;5058190;28;20421;-75
2021/08/30 09:34:29;;;;;;;14.83;12.10;;;18.90;99.90;;;;;;5051715;28;20411;-77
2021/08/30 09:36:54;;;;;;;15.23;12.37;;;19.10;99.90;;;;;;5051697;28;20430;-76
2021/08/30 09:39:20;;;;;;;16.20;12.30;;;19.20;99.90;;;;;;5051685;28;20422;-76
2021/08/30 09:41:45;;;;;;;14.00;11.33;;;19.40;99.90;;;;;;5053073;28;20182;-75
2021/08/30 09:44:11;;;;;;;14.10;12.60;;;19.60;99.90;;;;;;5052210;28;20172;-75
2021/08/30 09:46:36;;;;;;;13.17;10.90;;;19.90;99.90;;;;;;5052001;28;20251;-75
2021/08/30 09:49:06;;;;;;;14.43;10.70;;;20.00;99.90;;;;;;5054283;28;20610;-75
2021/08/30 09:51:37;;;;;;;14.73;10.60;;;20.10;99.90;;;;;;5051914;28;20180;-77
2021/08/30 09:54:03;;;;;;;13.23;10.50;;;20.10;99.90;;;;;;5050497;28;20466;-76
2021/08/30 09:56:32;;;;;;;12.63;9.97;;;20.00;99.90;;;;;;5050775;28;20470;-76
2021/08/30 09:58:59;;;;;;;14.00;10.63;;;19.80;99.90;;;;;;5033866;28;20211;-76
2021/08/30 10:01:25;;;;;;;11.40;10.30;;;19.70;99.90;;;;;;5054470;28;20438;-77
2021/08/30 10:03:50;;;;;;;11.20;10.00;;;19.50;99.90;;;;;;5053680;28;20927;-77
2021/08/30 10:06:17;;;;;;;14.30;10.30;;;19.30;99.90;;;;;;5052617;28;20395;-77
2021/08/30 10:08:43;;;;;;;12.10;11.00;;;19.10;99.90;;;;;;5052682;28;20188;-77
2021/08/30 10:11:09;;;;;;;13.13;10.13;;;19.00;99.90;;;;;;5050767;28;20422;-77
2021/08/30 10:13:35;;;;;;;13.27;9.53;;;18.90;99.90;;;;;;5052103;28;20184;-77
2021/08/30 10:16:01;;;;;;;12.00;9.87;;;18.80;99.90;;;;;;5051289;28;20212;-78
2021/08/30 10:18:26;;;;;;;15.87;10.80;;;18.80;99.90;;;;;;5051689;28;20178;-77
2021/08/30 10:20:54;;;;;;;13.37;11.57;;;18.80;99.90;;;;;;5049942;28;20490;-77
2021/08/30 10:23:20;;;;;;;16.70;10.30;;;18.90;99.90;;;;;;5051317;28;20173;-77
2021/08/30 10:25:58;;;;;;;15.57;11.90;;;19.00;99.90;;;;;;5050673;28;20426;-77
2021/08/30 10:28:34;;;;;;;13.50;10.90;;;19.20;99.90;;;;;;5038494;28;20172;-77
2021/08/30 10:30:59;;;;;;;13.00;10.90;;;19.40;99.90;;;;;;5039029;28;20425;-77
2021/08/30 10:33:34;;;;;;;12.53;10.00;;;19.50;99.90;;;;;;5040461;28;20522;-77
2021/08/30 10:36:11;;;;;;;11.87;9.90;;;19.60;99.90;;;;;;5037464;28;20180;-77
2021/08/30 10:38:36;;;;;;;13.50;10.37;;;19.50;99.90;;;;;;5036422;28;20489;-77
2021/08/30 10:41:14;;;;;;;12.03;10.67;;;19.60;99.90;;;;;;5036648;28;20403;-77
2021/08/30 10:43:42;;;;;;;15.13;11.57;;;19.50;99.90;;;;;;5038012;28;20260;-77
2021/08/30 10:46:16;;;;;;;14.47;10.50;;;19.40;99.90;;;;;;5037591;28;20442;-76
2021/08/30 10:48:49;;;;;;;13.13;9.77;;;19.40;99.90;;;;;;5037674;28;20415;-76
2021/08/30 10:51:20;;;;;;;13.07;10.77;;;19.40;99.90;;;;;;5037527;28;20411;-77
2021/08/30 10:54:07;;;;;;;12.10;10.60;;;19.40;99.90;;;;;;5035969;28;20417;-77
2021/08/30 10:56:33;;;;;;;11.97;10.03;;;19.40;99.90;;;;;;5036834;28;20446;-76
2021/08/30 10:59:07;;;;;;;12.07;10.70;;;19.50;99.90;;;;;;5036557;28;20407;-76
2021/08/30 11:01:34;;;;;;;12.37;10.37;;;19.60;99.90;;;;;;5033984;28;20943;-76
2021/08/30 11:04:00;;;;;;;12.47;9.97;;;19.60;99.90;;;;;;5033796;28;20419;-76
2021/08/30 11:06:26;;;;;;;11.30;8.97;;;19.60;99.90;;;;;;5038269;28;20426;-76
2021/08/30 11:08:52;;;;;;;12.73;9.80;;;19.70;99.90;;;;;;5037441;28;20181;-76
2021/08/30 11:11:20;;;;;;;14.70;10.40;;;19.70;99.90;;;;;;5035944;28;20638;-77
2021/08/30 11:14:08;;;;;;;11.83;10.00;;;19.70;99.90;;;;;;5038606;28;20453;-75
2021/08/30 11:16:36;;;;;;;13.43;9.87;;;19.70;99.90;;;;;;5038478;28;20463;-76
2021/08/30 11:21:50;;;;;;;10.43;9.33;;;19.70;99.90;;;;;;5113417;27;20522;-74
2021/08/30 11:27:07;;;;;;;12.50;10.00;;;19.90;99.90;;;;;;5122755;27;20579;-74
2021/08/30 11:29:34;;;;;;;10.80;8.20;;;20.10;99.90;;;;;;5110978;28;20503;-74
2021/08/30 11:32:00;;;;;;;8.87;7.67;;;20.20;99.90;;;;;;5108223;28;20427;-74
2021/08/30 11:37:07;;;;;;;11.83;8.40;;;20.20;99.90;;;;;;5076772;28;20570;-75
2021/08/30 11:39:35;;;;;;;13.80;9.97;;;20.40;99.90;;;;;;5064940;28;20944;-76
2021/08/30 11:42:05;;;;;;;12.63;8.97;;;20.40;99.90;;;;;;5071026;28;20485;-75
2021/08/30 11:44:32;;;;;;;10.83;9.70;;;20.40;99.90;;;;;;5067537;28;20426;-76
2021/08/30 11:47:01;;;;;;;11.53;8.30;;;20.30;99.90;;;;;;5073195;28;20394;-75
2021/08/30 11:49:30;;;;;;;10.10;8.13;;;20.30;99.90;;;;;;5069700;28;20835;-76
2021/08/30 11:51:59;;;;;;;9.63;8.50;;;20.20;99.90;;;;;;5069847;28;20410;-76
2021/08/30 11:54:28;;;;;;;9.00;8.10;;;20.20;99.90;;;;;;5070175;28;20897;-75
2021/08/30 11:57:00;;;;;;;9.77;7.77;;;20.10;99.90;;;;;;5067785;28;20453;-76
2021/08/30 11:59:31;;;;;;;10.40;9.13;;;20.20;99.90;;;;;;5062914;28;20466;-76
2021/08/30 12:01:57;;;;;;;9.77;7.87;;;20.30;99.90;;;;;;5067756;28;20426;-76
2021/08/30 12:04:27;;;;;;;9.30;8.40;;;20.40;99.90;;;;;;5069217;28;20405;-75
2021/08/30 12:06:55;;;;;;;8.83;7.93;;;20.40;99.90;;;;;;5067499;28;20430;-76
2021/08/30 12:09:21;;;;;;;11.13;7.90;;;20.50;99.90;;;;;;5068203;28;20434;-76
2021/08/30 12:11:49;;;;;;;9.03;8.13;;;20.60;99.90;;;;;;5062240;28;20899;-76
2021/08/30 12:14:16;;;;;;;9.03;7.00;;;20.60;99.90;;;;;;5066752;28;20413;-76
2021/08/30 12:16:44;;;;;;;10.07;7.70;;;20.50;99.90;;;;;;5070742;28;20533;-76
2021/08/30 12:19:11;;;;;;;8.03;7.00;;;20.40;99.90;;;;;;5072924;28;20421;-76
2021/08/30 12:21:39;;;;;;;8.07;7.23;;;20.30;99.90;;;;;;5071639;28;20406;-76
2021/08/30 12:24:07;;;;;;;8.50;7.67;;;20.30;99.90;;;;;;5074235;28;20457;-76
2021/08/30 12:26:38;;;;;;;8.40;7.33;;;20.40;99.90;;;;;;5070172;28;20433;-75
2021/08/30 12:29:04;;;;;;;7.97;6.40;;;20.50;99.90;;;;;;5069975;28;20956;-76
2021/08/30 12:31:34;;;;;;;7.93;7.13;;;20.60;99.90;;;;;;5070850;28;20426;-75
2021/08/30 12:34:03;;;;;;;6.90;6.20;;;20.60;99.90;;;;;;5062497;28;20939;-76
2021/08/30 12:36:29;;;;;;;8.13;6.27;;;20.60;99.90;;;;;;5063913;28;20462;-76
2021/08/30 12:38:54;;;;;;;9.70;7.93;;;20.60;99.90;;;;;;5064251;28;20414;-76
2021/08/30 12:41:20;;;;;;;10.70;7.33;;;20.50;99.90;;;;;;5062798;28;20433;-75
2021/08/30 12:43:47;;;;;;;7.33;6.63;;;20.50;99.90;;;;;;5058989;28;20207;-76
2021/08/30 12:46:13;;;;;;;6.97;6.13;;;20.50;99.90;;;;;;5066902;28;20518;-76
2021/08/30 12:48:39;;;;;;;8.80;7.70;;;20.40;99.90;;;;;;5046040;28;20819;-76
2021/08/30 12:51:05;;;;;;;8.60;7.00;;;20.40;99.90;;;;;;5048613;28;20595;-76
2021/08/30 12:53:32;;;;;;;8.50;7.07;;;20.40;99.90;;;;;;5052302;28;20187;-76
2021/08/30 12:55:58;;;;;;;7.60;6.60;;;20.40;99.90;;;;;;5043921;28;20936;-76